METAR AND TAF INFORMATION
METAR FOR UMMS
ADDS - METARS form results

(1846 UTC 19 April 2019)
Data provider http://aviationweather.gov/metar/data/
 
METAR text: UMMS 191830Z 00000MPS CAVOK 06/M04 Q1029 R31/D NOSIG
Conditions at: UMMS (MINSK , BY) observed 1830 UTC 19 April 2019
Temperature: 6.0°C (43°F)
Dewpoint: -4.0°C (25°F) [RH = 49%]
Pressure (altimeter): 30.38 inches Hg (1029.0 mb)
Winds: calm
Visibility: 6 or more miles (10+ km)
Ceiling: ceiling and visibility are OK
Clouds: unknown
Weather: no significant weather observed at this time

METAR text: UMMS 191800Z 00000MPS CAVOK 07/M03 Q1029 R31/D NOSIG
Conditions at: UMMS (MINSK , BY) observed 1800 UTC 19 April 2019
Temperature: 7.0°C (45°F)
Dewpoint: -3.0°C (27°F) [RH = 49%]
Pressure (altimeter): 30.38 inches Hg (1029.0 mb)
Winds: calm
Visibility: 6 or more miles (10+ km)
Ceiling: ceiling and visibility are OK
Clouds: unknown
Weather: no significant weather observed at this time

Forecast for: UMMS (MINSK , BY)
Text: TAF UMMS 191704Z 1918/2018 VRB02MPS 9999 SCT030
Forecast period: 1800 UTC 19 April 2019 to 0600 UTC 20 April 2019
Forecast type: FROM: standard forecast or significant change
Winds: variable direction winds at 5 MPH (4 knots; 2.1 m/s)
Visibility: 6 or more miles 10+ km)
Ceiling: at least 12,000 feet AGL
Clouds: scattered clouds at 3000 feet AGL
Weather: no significant weather forecast for this period
Text: BECMG 2006/2008 35007G12MPS
Forecast period: 0600 to 1800 UTC 20 April 2019
Forecast type: BECOMING: Conditions expected to become as follows by 0800 UTC 20 April 2019
Winds: from the N (350 degrees) at 16 MPH (14 knots; 7.2 m/s)
gusting to 26 MPH (23 knots; 11.8 m/s)
Visibility: 6 or more miles 10+ km)
Ceiling: at least 12,000 feet AGL
Clouds: scattered clouds at 3000 feet AGL
Weather: no significant weather forecast for this period
Text: TEMPO 2015/2018 -SHRA BKN015CB
Forecast period: 1500 to 1800 UTC 20 April 2019
Forecast type: TEMPORARY: The following changes expected for less than half the time period
Visibility: missing
Ceiling: 1500 feet AGL
Clouds: broken clouds at 1500 feet AGL
Weather: -SHRA  (light rain showers)

 AIRPORT MAP

 RUNWAY INFORMATION
Runway 13 Runway length 11946 ft Runway width 197 ft
Runway elevation 640 ft Runway displaced threshold 0 ft Runway heading 139
Runway 31 Runway length 11946 ft Runway width 197 ft
Runway elevation 670 ft Runway displaced threshold 0 ft Runway heading 319

 AIRPORT FREQUENCIES
Type APP Name MINSK APP Frequency 125.9 MHZ
Type ATIS Name ATIS Frequency 128.85 MHZ
Type GND Name GND Frequency 121.7 MHZ
Type PMSV Name MINSK VOLM Frequency 126.675 MHZ
Type RDR Name MINSK RADA Frequency 125.25 MHZ
Type TWR Name TWR Frequency 118.3 MHZ

 AIRPORT NEAR NAVIGATION AIDS
Type NDB Name Minsk-2 Frequency 635 KHZ
Type VOR-DME Name Minsk-2 Frequency 113600 KHZ
Type NDB Name Minsk-2 Frequency 635 KHZ



>